EWG1M EDDH-EDDM
Flight info
| Callsign | EWG1M |
|---|---|
| Flight time | 1h 2m |
| Altitude | 33000 |
| Route | AMLUH2G/33 AMLUH M852 DENIX DCT ZUCKA DCT SODRO/N0451F310 T703 LULAR/N0452F300 T105 LANDU LANDU2B |
| Aircraft | A320/M-SDE3FGHIRWY/LB1 |
Departure
| Time | 2026-05-07 18:33 |
|---|---|
| Airport | Hamburg Helmut Schmidt Airport (EDDH) |
Arrival
| Time | 2026-05-07 19:35 |
|---|---|
| Airport | Munich Airport (EDDM) |
| Time | Latitude | Longitude | Altitude | Speed | Heading |
|---|---|---|---|---|---|
| 2026-05-07 18:09 | 53.63112 | 10.00376 | 49 ft | 0 kts | 87° |
| 2026-05-07 18:26 | 53.63112 | 10.00370 | 49 ft | 2 kts | 87° |
| 2026-05-07 18:26 | 53.63112 | 10.00342 | 45 ft | 2 kts | 91° |
| 2026-05-07 18:27 | 53.63112 | 10.00314 | 43 ft | 2 kts | 97° |
| 2026-05-07 18:27 | 53.63115 | 10.00287 | 46 ft | 2 kts | 110° |
| 2026-05-07 18:27 | 53.63124 | 10.00263 | 45 ft | 2 kts | 149° |
| 2026-05-07 18:27 | 53.63133 | 10.00256 | 43 ft | 2 kts | 174° |
| 2026-05-07 18:28 | 53.63137 | 10.00256 | 43 ft | 0 kts | 174° |
| 2026-05-07 18:29 | 53.63136 | 10.00256 | 43 ft | 1 kts | 174° |
| 2026-05-07 18:30 | 53.63108 | 10.00261 | 44 ft | 5 kts | 175° |
| 2026-05-07 18:30 | 53.63042 | 10.00235 | 48 ft | 12 kts | 211° |
| 2026-05-07 18:30 | 53.62976 | 10.00166 | 49 ft | 10 kts | 214° |
| 2026-05-07 18:30 | 53.62929 | 10.00115 | 49 ft | 7 kts | 213° |
| 2026-05-07 18:31 | 53.62892 | 10.00074 | 49 ft | 6 kts | 215° |
| 2026-05-07 18:31 | 53.62867 | 10.00029 | 49 ft | 6 kts | 238° |
| 2026-05-07 18:31 | 53.62838 | 9.99935 | 47 ft | 10 kts | 243° |
| 2026-05-07 18:31 | 53.62813 | 9.99823 | 45 ft | 10 kts | 276° |
| 2026-05-07 18:32 | 53.62849 | 9.99761 | 45 ft | 0 kts | 331° |
| 2026-05-07 18:32 | 53.62861 | 9.99750 | 45 ft | 11 kts | 331° |
| 2026-05-07 18:32 | 53.63142 | 9.99511 | 44 ft | 81 kts | 331° |
| 2026-05-07 18:33 | 53.63823 | 9.98914 | 48 ft | 137 kts | 334° |
| 2026-05-07 18:33 | 53.64776 | 9.98098 | 245 ft | 162 kts | 337° |
| 2026-05-07 18:33 | 53.65787 | 9.97244 | 863 ft | 162 kts | 337° |
| 2026-05-07 18:33 | 53.66803 | 9.96371 | 1522 ft | 165 kts | 337° |
| 2026-05-07 18:34 | 53.67826 | 9.95488 | 2055 ft | 171 kts | 337° |
| 2026-05-07 18:34 | 53.68994 | 9.94758 | 2451 ft | 185 kts | 354° |
| 2026-05-07 18:34 | 53.70326 | 9.94673 | 2751 ft | 205 kts | 4° |
| 2026-05-07 18:34 | 53.71807 | 9.94741 | 3272 ft | 216 kts | 12° |
| 2026-05-07 18:35 | 53.73114 | 9.95804 | 4057 ft | 208 kts | 46° |
| 2026-05-07 18:35 | 53.73871 | 9.97822 | 4758 ft | 209 kts | 75° |
| 2026-05-07 18:35 | 53.73967 | 10.00290 | 5171 ft | 214 kts | 87° |
| 2026-05-07 18:35 | 53.74141 | 10.02801 | 5515 ft | 216 kts | 86° |
| 2026-05-07 18:36 | 53.73984 | 10.04481 | 5756 ft | 220 kts | 113° |
| 2026-05-07 18:36 | 53.73192 | 10.06800 | 6254 ft | 237 kts | 120° |
| 2026-05-07 18:36 | 53.72321 | 10.09273 | 6724 ft | 254 kts | 118° |
| 2026-05-07 18:36 | 53.71429 | 10.11903 | 7250 ft | 267 kts | 118° |
| 2026-05-07 18:37 | 53.70502 | 10.14665 | 7977 ft | 273 kts | 118° |
| 2026-05-07 18:37 | 53.69516 | 10.17424 | 8758 ft | 278 kts | 126° |
| 2026-05-07 18:37 | 53.68154 | 10.19772 | 9539 ft | 283 kts | 142° |
| 2026-05-07 18:37 | 53.66437 | 10.21449 | 10001 ft | 289 kts | 158° |
| 2026-05-07 18:38 | 53.64489 | 10.22418 | 10092 ft | 302 kts | 165° |
| 2026-05-07 18:38 | 53.62354 | 10.23371 | 10112 ft | 330 kts | 165° |
| 2026-05-07 18:38 | 53.60105 | 10.24388 | 10111 ft | 338 kts | 164° |
| 2026-05-07 18:38 | 53.57803 | 10.25438 | 10148 ft | 343 kts | 164° |
| 2026-05-07 18:39 | 53.55540 | 10.26475 | 10530 ft | 340 kts | 164° |
| 2026-05-07 18:39 | 53.53206 | 10.27543 | 10935 ft | 354 kts | 165° |
| 2026-05-07 18:39 | 53.50812 | 10.28639 | 11577 ft | 358 kts | 165° |
| 2026-05-07 18:39 | 53.48397 | 10.29745 | 12270 ft | 362 kts | 165° |
| 2026-05-07 18:40 | 53.45946 | 10.30831 | 12954 ft | 365 kts | 166° |
| 2026-05-07 18:40 | 53.43456 | 10.31784 | 13635 ft | 369 kts | 168° |
| 2026-05-07 18:40 | 53.40930 | 10.32645 | 14246 ft | 372 kts | 169° |
| 2026-05-07 18:40 | 53.38374 | 10.33469 | 14831 ft | 376 kts | 169° |
| 2026-05-07 18:41 | 53.35795 | 10.34294 | 15412 ft | 379 kts | 169° |
| 2026-05-07 18:41 | 53.33228 | 10.35129 | 15988 ft | 382 kts | 169° |
| 2026-05-07 18:41 | 53.30589 | 10.36007 | 16562 ft | 385 kts | 169° |
| 2026-05-07 18:41 | 53.27974 | 10.36893 | 17134 ft | 389 kts | 169° |
| 2026-05-07 18:42 | 53.25315 | 10.37804 | 17691 ft | 392 kts | 169° |
| 2026-05-07 18:42 | 53.22628 | 10.38725 | 18276 ft | 395 kts | 169° |
| 2026-05-07 18:42 | 53.19922 | 10.39651 | 18780 ft | 399 kts | 169° |
| 2026-05-07 18:42 | 53.17191 | 10.40584 | 19284 ft | 402 kts | 169° |
| 2026-05-07 18:43 | 53.14447 | 10.41514 | 19785 ft | 404 kts | 169° |
| 2026-05-07 18:43 | 53.11677 | 10.42453 | 20279 ft | 407 kts | 169° |
| 2026-05-07 18:43 | 53.08873 | 10.43215 | 20748 ft | 409 kts | 174° |
| 2026-05-07 18:43 | 53.06037 | 10.43771 | 21216 ft | 412 kts | 174° |
| 2026-05-07 18:44 | 53.03177 | 10.44319 | 21663 ft | 414 kts | 174° |
| 2026-05-07 18:44 | 53.00309 | 10.44871 | 22114 ft | 417 kts | 174° |
| 2026-05-07 18:44 | 52.97415 | 10.45431 | 22549 ft | 419 kts | 174° |
| 2026-05-07 18:44 | 52.94511 | 10.45995 | 22962 ft | 422 kts | 174° |
| 2026-05-07 18:45 | 52.91588 | 10.46564 | 23373 ft | 425 kts | 174° |
| 2026-05-07 18:45 | 52.88643 | 10.47139 | 23753 ft | 427 kts | 174° |
| 2026-05-07 18:45 | 52.85683 | 10.47715 | 24082 ft | 429 kts | 174° |
| 2026-05-07 18:45 | 52.82704 | 10.48290 | 24400 ft | 431 kts | 174° |
| 2026-05-07 18:46 | 52.79714 | 10.48860 | 24726 ft | 433 kts | 174° |
| 2026-05-07 18:46 | 52.76707 | 10.49427 | 25040 ft | 435 kts | 174° |
| 2026-05-07 18:46 | 52.73688 | 10.49991 | 25362 ft | 437 kts | 174° |
| 2026-05-07 18:46 | 52.70662 | 10.50553 | 25654 ft | 439 kts | 174° |
| 2026-05-07 18:47 | 52.67615 | 10.51112 | 25934 ft | 441 kts | 174° |
| 2026-05-07 18:47 | 52.64566 | 10.51666 | 26241 ft | 443 kts | 174° |
| 2026-05-07 18:47 | 52.61484 | 10.52221 | 26525 ft | 445 kts | 174° |
| 2026-05-07 18:47 | 52.58419 | 10.52988 | 26807 ft | 447 kts | 165° |
| 2026-05-07 18:48 | 52.55491 | 10.54693 | 27074 ft | 449 kts | 159° |
| 2026-05-07 18:48 | 52.52562 | 10.56562 | 27318 ft | 452 kts | 159° |
| 2026-05-07 18:48 | 52.49634 | 10.58444 | 27563 ft | 453 kts | 159° |
| 2026-05-07 18:48 | 52.46729 | 10.60317 | 27808 ft | 455 kts | 159° |
| 2026-05-07 18:49 | 52.43775 | 10.62225 | 28053 ft | 457 kts | 159° |
| 2026-05-07 18:49 | 52.40815 | 10.64130 | 28294 ft | 458 kts | 159° |
| 2026-05-07 18:49 | 52.37876 | 10.66013 | 28523 ft | 459 kts | 159° |
| 2026-05-07 18:49 | 52.34855 | 10.67942 | 28750 ft | 461 kts | 159° |
| 2026-05-07 18:50 | 52.31861 | 10.69845 | 28987 ft | 461 kts | 159° |
| 2026-05-07 18:50 | 52.28876 | 10.71737 | 29292 ft | 460 kts | 159° |
| 2026-05-07 18:50 | 52.25891 | 10.73623 | 29609 ft | 459 kts | 159° |
| 2026-05-07 18:50 | 52.22909 | 10.75511 | 29921 ft | 458 kts | 159° |
| 2026-05-07 18:51 | 52.19949 | 10.77389 | 30225 ft | 457 kts | 159° |
| 2026-05-07 18:51 | 52.16985 | 10.79265 | 30476 ft | 457 kts | 159° |
| 2026-05-07 18:51 | 52.14023 | 10.81135 | 30729 ft | 456 kts | 159° |
| 2026-05-07 18:51 | 52.11067 | 10.83000 | 30981 ft | 456 kts | 159° |
| 2026-05-07 18:52 | 52.08114 | 10.84860 | 31234 ft | 455 kts | 159° |
| 2026-05-07 18:52 | 52.05197 | 10.86694 | 31477 ft | 454 kts | 159° |
| 2026-05-07 18:52 | 52.02251 | 10.88544 | 31736 ft | 454 kts | 159° |
| 2026-05-07 18:52 | 51.99306 | 10.90391 | 31973 ft | 454 kts | 159° |
| 2026-05-07 18:53 | 51.96362 | 10.92235 | 32220 ft | 453 kts | 159° |
| 2026-05-07 18:53 | 51.93384 | 10.94094 | 32469 ft | 453 kts | 159° |
| 2026-05-07 18:53 | 51.90479 | 10.95904 | 32707 ft | 453 kts | 159° |
| 2026-05-07 18:53 | 51.87541 | 10.97732 | 32953 ft | 452 kts | 159° |
| 2026-05-07 18:54 | 51.84601 | 10.99559 | 33093 ft | 453 kts | 159° |
| 2026-05-07 18:54 | 51.78697 | 11.03220 | 33106 ft | 454 kts | 159° |
| 2026-05-07 18:55 | 51.72792 | 11.06882 | 33104 ft | 455 kts | 159° |
| 2026-05-07 18:55 | 51.66884 | 11.10532 | 33114 ft | 455 kts | 160° |
| 2026-05-07 18:56 | 51.60959 | 11.14179 | 33106 ft | 455 kts | 160° |
| 2026-05-07 18:56 | 51.55042 | 11.17814 | 33105 ft | 455 kts | 160° |
| 2026-05-07 18:57 | 51.49110 | 11.21448 | 33120 ft | 455 kts | 160° |
| 2026-05-07 18:57 | 51.43190 | 11.25063 | 33110 ft | 456 kts | 160° |
| 2026-05-07 18:58 | 51.37258 | 11.28683 | 33111 ft | 456 kts | 159° |
| 2026-05-07 18:58 | 51.31403 | 11.32433 | 33101 ft | 456 kts | 158° |
| 2026-05-07 18:59 | 51.25530 | 11.36303 | 33109 ft | 456 kts | 158° |
| 2026-05-07 18:59 | 51.19657 | 11.40148 | 33109 ft | 456 kts | 159° |
| 2026-05-07 19:00 | 51.13774 | 11.43943 | 33105 ft | 457 kts | 159° |
| 2026-05-07 19:00 | 51.07879 | 11.47732 | 33098 ft | 457 kts | 159° |
| 2026-05-07 19:01 | 51.01979 | 11.51527 | 33099 ft | 457 kts | 159° |
| 2026-05-07 19:01 | 50.96076 | 11.55313 | 33098 ft | 457 kts | 159° |
| 2026-05-07 19:02 | 50.90177 | 11.59082 | 33088 ft | 458 kts | 159° |
| 2026-05-07 19:02 | 50.84264 | 11.62847 | 33089 ft | 458 kts | 159° |
| 2026-05-07 19:03 | 50.78351 | 11.66593 | 33091 ft | 458 kts | 159° |
| 2026-05-07 19:03 | 50.72426 | 11.70353 | 33096 ft | 458 kts | 159° |
| 2026-05-07 19:04 | 50.66507 | 11.74091 | 33085 ft | 459 kts | 159° |
| 2026-05-07 19:04 | 50.60612 | 11.77809 | 32970 ft | 459 kts | 159° |
| 2026-05-07 19:04 | 50.57610 | 11.79705 | 32740 ft | 459 kts | 159° |
| 2026-05-07 19:05 | 50.54646 | 11.81574 | 32493 ft | 460 kts | 159° |
| 2026-05-07 19:05 | 50.51714 | 11.83418 | 32252 ft | 460 kts | 159° |
| 2026-05-07 19:05 | 50.48739 | 11.85285 | 32004 ft | 461 kts | 159° |
| 2026-05-07 19:05 | 50.45759 | 11.87147 | 31772 ft | 462 kts | 159° |
| 2026-05-07 19:06 | 50.42772 | 11.89007 | 31540 ft | 462 kts | 159° |
| 2026-05-07 19:06 | 50.36786 | 11.92727 | 31073 ft | 463 kts | 159° |
| 2026-05-07 19:06 | 50.33792 | 11.94594 | 30859 ft | 464 kts | 159° |
| 2026-05-07 19:07 | 50.30791 | 11.96463 | 30627 ft | 464 kts | 159° |
| 2026-05-07 19:07 | 50.27788 | 11.98329 | 30395 ft | 465 kts | 159° |
| 2026-05-07 19:07 | 50.24780 | 12.00193 | 30182 ft | 465 kts | 159° |
| 2026-05-07 19:07 | 50.21772 | 12.02051 | 29933 ft | 466 kts | 159° |
| 2026-05-07 19:08 | 50.18755 | 12.03910 | 29672 ft | 467 kts | 159° |
| 2026-05-07 19:08 | 50.15733 | 12.05769 | 29416 ft | 467 kts | 159° |
| 2026-05-07 19:08 | 50.12700 | 12.07632 | 29163 ft | 468 kts | 159° |
| 2026-05-07 19:08 | 50.09673 | 12.09492 | 28907 ft | 469 kts | 159° |
| 2026-05-07 19:09 | 50.06630 | 12.11365 | 28645 ft | 470 kts | 159° |
| 2026-05-07 19:09 | 50.03590 | 12.13234 | 28397 ft | 471 kts | 159° |
| 2026-05-07 19:09 | 50.00542 | 12.15108 | 28151 ft | 471 kts | 159° |
| 2026-05-07 19:09 | 49.97490 | 12.16979 | 27897 ft | 472 kts | 159° |
| 2026-05-07 19:10 | 49.94425 | 12.18855 | 27649 ft | 473 kts | 159° |
| 2026-05-07 19:10 | 49.91403 | 12.20698 | 27416 ft | 474 kts | 160° |
| 2026-05-07 19:10 | 49.88332 | 12.22568 | 27169 ft | 473 kts | 160° |
| 2026-05-07 19:10 | 49.85274 | 12.24430 | 27001 ft | 472 kts | 160° |
| 2026-05-07 19:11 | 49.82228 | 12.26280 | 27049 ft | 473 kts | 160° |
| 2026-05-07 19:11 | 49.79136 | 12.28154 | 27047 ft | 473 kts | 160° |
| 2026-05-07 19:11 | 49.76079 | 12.30006 | 27047 ft | 473 kts | 160° |
| 2026-05-07 19:11 | 49.73042 | 12.32020 | 27042 ft | 474 kts | 154° |
| 2026-05-07 19:12 | 49.70238 | 12.34685 | 27043 ft | 475 kts | 144° |
| 2026-05-07 19:12 | 49.67606 | 12.37785 | 27049 ft | 476 kts | 143° |
| 2026-05-07 19:12 | 49.64967 | 12.40883 | 27052 ft | 476 kts | 144° |
| 2026-05-07 19:12 | 49.62322 | 12.43966 | 27051 ft | 476 kts | 144° |
| 2026-05-07 19:13 | 49.59676 | 12.47035 | 27055 ft | 476 kts | 144° |
| 2026-05-07 19:13 | 49.57062 | 12.50059 | 27055 ft | 476 kts | 144° |
| 2026-05-07 19:13 | 49.54401 | 12.53135 | 27055 ft | 477 kts | 144° |
| 2026-05-07 19:13 | 49.51745 | 12.56207 | 27055 ft | 477 kts | 144° |
| 2026-05-07 19:14 | 49.49421 | 12.58897 | 27052 ft | 477 kts | 144° |
| 2026-05-07 19:14 | 49.46769 | 12.61963 | 27053 ft | 477 kts | 144° |
| 2026-05-07 19:15 | 49.37944 | 12.70100 | 27050 ft | 471 kts | 166° |
| 2026-05-07 19:15 | 49.34737 | 12.70995 | 27056 ft | 467 kts | 179° |
| 2026-05-07 19:15 | 49.31507 | 12.70907 | 26855 ft | 460 kts | 189° |
| 2026-05-07 19:15 | 49.28388 | 12.69940 | 25705 ft | 457 kts | 201° |
| 2026-05-07 19:16 | 49.25455 | 12.68037 | 24525 ft | 457 kts | 208° |
| 2026-05-07 19:16 | 49.22599 | 12.65936 | 23496 ft | 457 kts | 208° |
| 2026-05-07 19:16 | 49.19781 | 12.63902 | 22249 ft | 447 kts | 207° |
| 2026-05-07 19:16 | 49.16955 | 12.61884 | 20893 ft | 440 kts | 207° |
| 2026-05-07 19:17 | 49.14224 | 12.59943 | 20139 ft | 423 kts | 207° |
| 2026-05-07 19:17 | 49.11654 | 12.58120 | 19586 ft | 403 kts | 207° |
| 2026-05-07 19:17 | 49.09129 | 12.56326 | 19022 ft | 387 kts | 208° |
| 2026-05-07 19:17 | 49.06757 | 12.54638 | 18517 ft | 378 kts | 208° |
| 2026-05-07 19:18 | 49.04385 | 12.52943 | 17962 ft | 375 kts | 208° |
| 2026-05-07 19:18 | 49.02031 | 12.51259 | 17469 ft | 372 kts | 208° |
| 2026-05-07 19:18 | 48.99692 | 12.49583 | 16990 ft | 370 kts | 208° |
| 2026-05-07 19:18 | 48.97377 | 12.47920 | 16505 ft | 366 kts | 208° |
| 2026-05-07 19:19 | 48.95085 | 12.46279 | 16036 ft | 363 kts | 208° |
| 2026-05-07 19:19 | 48.92809 | 12.44654 | 15551 ft | 360 kts | 208° |
| 2026-05-07 19:19 | 48.90552 | 12.43047 | 15067 ft | 357 kts | 208° |
| 2026-05-07 19:19 | 48.88307 | 12.41453 | 14568 ft | 355 kts | 207° |
| 2026-05-07 19:20 | 48.86796 | 12.40381 | 14216 ft | 353 kts | 208° |
| 2026-05-07 19:20 | 48.84577 | 12.38810 | 13679 ft | 352 kts | 207° |
| 2026-05-07 19:20 | 48.82377 | 12.37247 | 13122 ft | 349 kts | 208° |
| 2026-05-07 19:20 | 48.80173 | 12.35680 | 12573 ft | 347 kts | 207° |
| 2026-05-07 19:21 | 48.77908 | 12.34417 | 12014 ft | 347 kts | 198° |
| 2026-05-07 19:21 | 48.75571 | 12.33521 | 11445 ft | 346 kts | 197° |
| 2026-05-07 19:21 | 48.73214 | 12.32611 | 11117 ft | 360 kts | 197° |
| 2026-05-07 19:21 | 48.70743 | 12.31690 | 11064 ft | 361 kts | 195° |
| 2026-05-07 19:22 | 48.68284 | 12.30896 | 11074 ft | 361 kts | 195° |
| 2026-05-07 19:22 | 48.65852 | 12.30135 | 11070 ft | 362 kts | 195° |
| 2026-05-07 19:22 | 48.63986 | 12.29451 | 10790 ft | 358 kts | 199° |
| 2026-05-07 19:22 | 48.61579 | 12.28556 | 10300 ft | 355 kts | 195° |
| 2026-05-07 19:23 | 48.59178 | 12.27805 | 9800 ft | 349 kts | 194° |
| 2026-05-07 19:23 | 48.56819 | 12.27080 | 9263 ft | 342 kts | 194° |
| 2026-05-07 19:23 | 48.54503 | 12.26365 | 8738 ft | 337 kts | 194° |
| 2026-05-07 19:23 | 48.52226 | 12.25657 | 8223 ft | 332 kts | 194° |
| 2026-05-07 19:24 | 48.49971 | 12.24950 | 7715 ft | 328 kts | 194° |
| 2026-05-07 19:24 | 48.47752 | 12.24245 | 7208 ft | 324 kts | 194° |
| 2026-05-07 19:24 | 48.45591 | 12.23548 | 6721 ft | 320 kts | 194° |
| 2026-05-07 19:24 | 48.43402 | 12.22830 | 6204 ft | 316 kts | 195° |
| 2026-05-07 19:25 | 48.41412 | 12.21729 | 5711 ft | 309 kts | 214° |
| 2026-05-07 19:25 | 48.39866 | 12.19479 | 5194 ft | 301 kts | 239° |
| 2026-05-07 19:25 | 48.39202 | 12.16653 | 5026 ft | 285 kts | 265° |
| 2026-05-07 19:25 | 48.39450 | 12.13838 | 5029 ft | 263 kts | 290° |
| 2026-05-07 19:26 | 48.40337 | 12.11504 | 5031 ft | 261 kts | 314° |
| 2026-05-07 19:26 | 48.41851 | 12.10079 | 5035 ft | 252 kts | 343° |
| 2026-05-07 19:26 | 48.43524 | 12.09998 | 5030 ft | 236 kts | 14° |
| 2026-05-07 19:26 | 48.44929 | 12.11235 | 5033 ft | 241 kts | 46° |
| 2026-05-07 19:27 | 48.45975 | 12.13217 | 5033 ft | 243 kts | 53° |
| 2026-05-07 19:27 | 48.46938 | 12.15321 | 5031 ft | 243 kts | 54° |
| 2026-05-07 19:27 | 48.47840 | 12.17471 | 5028 ft | 244 kts | 66° |
| 2026-05-07 19:27 | 48.48237 | 12.19944 | 5031 ft | 245 kts | 82° |
| 2026-05-07 19:28 | 48.48278 | 12.22511 | 5023 ft | 245 kts | 103° |
| 2026-05-07 19:28 | 48.47529 | 12.24774 | 5027 ft | 243 kts | 135° |
| 2026-05-07 19:28 | 48.46128 | 12.26114 | 5027 ft | 239 kts | 166° |
| 2026-05-07 19:28 | 48.44500 | 12.26264 | 5025 ft | 234 kts | 197° |
| 2026-05-07 19:29 | 48.43106 | 12.25122 | 5026 ft | 226 kts | 227° |
| 2026-05-07 19:29 | 48.42111 | 12.23413 | 5030 ft | 208 kts | 233° |
| 2026-05-07 19:29 | 48.41257 | 12.21759 | 5054 ft | 190 kts | 234° |
| 2026-05-07 19:29 | 48.40489 | 12.20250 | 5046 ft | 176 kts | 234° |
| 2026-05-07 19:30 | 48.39755 | 12.18795 | 5033 ft | 176 kts | 236° |
| 2026-05-07 19:30 | 48.39293 | 12.17116 | 5022 ft | 175 kts | 263° |
| 2026-05-07 19:30 | 48.39159 | 12.15297 | 5031 ft | 175 kts | 264° |
| 2026-05-07 19:30 | 48.39029 | 12.13471 | 5028 ft | 175 kts | 264° |
| 2026-05-07 19:31 | 48.38896 | 12.11649 | 5032 ft | 175 kts | 264° |
| 2026-05-07 19:31 | 48.38762 | 12.09827 | 5010 ft | 175 kts | 264° |
| 2026-05-07 19:31 | 48.38627 | 12.08003 | 4868 ft | 175 kts | 264° |
| 2026-05-07 19:31 | 48.38493 | 12.06181 | 4658 ft | 175 kts | 264° |
| 2026-05-07 19:32 | 48.38358 | 12.04363 | 4429 ft | 175 kts | 264° |
| 2026-05-07 19:32 | 48.38224 | 12.02551 | 4195 ft | 175 kts | 264° |
| 2026-05-07 19:32 | 48.38088 | 12.00726 | 3963 ft | 175 kts | 264° |
| 2026-05-07 19:32 | 48.37952 | 11.98900 | 3724 ft | 175 kts | 264° |
| 2026-05-07 19:33 | 48.37816 | 11.97082 | 3492 ft | 175 kts | 264° |
| 2026-05-07 19:33 | 48.37679 | 11.95258 | 3256 ft | 176 kts | 264° |
| 2026-05-07 19:33 | 48.37541 | 11.93410 | 3014 ft | 186 kts | 264° |
| 2026-05-07 19:33 | 48.37393 | 11.91440 | 2760 ft | 191 kts | 264° |
| 2026-05-07 19:34 | 48.37248 | 11.89533 | 2506 ft | 175 kts | 264° |
| 2026-05-07 19:34 | 48.37118 | 11.87802 | 2249 ft | 158 kts | 265° |
| 2026-05-07 19:34 | 48.37014 | 11.86353 | 2055 ft | 143 kts | 265° |
| 2026-05-07 19:34 | 48.36921 | 11.85177 | 1881 ft | 141 kts | 265° |
| 2026-05-07 19:35 | 48.36796 | 11.83647 | 1744 ft | 153 kts | 264° |
| 2026-05-07 19:35 | 48.36678 | 11.82080 | 1533 ft | 147 kts | 264° |
| 2026-05-07 19:35 | 48.36575 | 11.80660 | 1481 ft | 121 kts | 263° |
| 2026-05-07 19:35 | 48.36513 | 11.79853 | 1485 ft | 33 kts | 264° |
| 2026-05-07 19:36 | 48.36495 | 11.79631 | 1475 ft | 35 kts | 262° |
| 2026-05-07 19:36 | 48.36456 | 11.79140 | 1485 ft | 44 kts | 265° |
| 2026-05-07 19:36 | 48.36345 | 11.78813 | 1476 ft | 34 kts | 240° |
| 2026-05-07 19:36 | 48.36239 | 11.78575 | 1479 ft | 20 kts | 222° |
| 2026-05-07 19:37 | 48.36154 | 11.78479 | 1485 ft | 8 kts | 173° |
| 2026-05-07 19:37 | 48.36101 | 11.78487 | 1481 ft | 7 kts | 175° |
| 2026-05-07 19:37 | 48.36051 | 11.78497 | 1483 ft | 9 kts | 158° |
| 2026-05-07 19:37 | 48.36042 | 11.78623 | 1485 ft | 17 kts | 79° |
| 2026-05-07 19:38 | 48.36057 | 11.78832 | 1485 ft | 24 kts | 84° |
| 2026-05-07 19:38 | 48.36078 | 11.79107 | 1477 ft | 16 kts | 85° |
| 2026-05-07 19:38 | 48.36088 | 11.79266 | 1481 ft | 8 kts | 88° |
| 2026-05-07 19:38 | 48.36028 | 11.79327 | 1473 ft | 13 kts | 173° |
| 2026-05-07 19:39 | 48.35931 | 11.79348 | 1475 ft | 13 kts | 156° |
| 2026-05-07 19:39 | 48.35849 | 11.79386 | 1484 ft | 11 kts | 171° |
| 2026-05-07 19:39 | 48.35821 | 11.79340 | 1485 ft | 6 kts | 263° |
| 2026-05-07 19:39 | 48.35816 | 11.79266 | 1479 ft | 8 kts | 263° |
| 2026-05-07 19:40 | 48.35814 | 11.79247 | 1477 ft | 0 kts | 263° |